sensor_id;sensor_type;location;lat;lon;timestamp;pressure;altitude;pressure_sealevel;temperature;humidity
13486;BME280;6815;59.336;17.998;2023-02-10T00:01:51;52276.81;;;-145.37;48.23
13486;BME280;6815;59.336;17.998;2023-02-10T00:04:16;52252.84;;;-145.37;48.58
13486;BME280;6815;59.336;17.998;2023-02-10T00:06:42;52268.81;;;-145.37;48.34
13486;BME280;6815;59.336;17.998;2023-02-10T00:09:10;52264.81;;;-145.37;47.94
13486;BME280;6815;59.336;17.998;2023-02-10T00:11:36;52264.81;;;-145.37;48.61
13486;BME280;6815;59.336;17.998;2023-02-10T00:14:20;52260.84;;;-145.37;48.25
13486;BME280;6815;59.336;17.998;2023-02-10T00:16:49;52264.81;;;-145.37;48.02
13486;BME280;6815;59.336;17.998;2023-02-10T00:19:16;52254.84;;;-145.37;47.91
13486;BME280;6815;59.336;17.998;2023-02-10T00:21:41;52244.84;;;-145.37;48.31
13486;BME280;6815;59.336;17.998;2023-02-10T00:24:07;52250.84;;;-145.37;47.99
13486;BME280;6815;59.336;17.998;2023-02-10T00:26:32;52254.84;;;-145.37;48.48
13486;BME280;6815;59.336;17.998;2023-02-10T00:28:58;52252.84;;;-145.37;48.00
13486;BME280;6815;59.336;17.998;2023-02-10T00:31:27;52232.88;;;-145.37;47.29
13486;BME280;6815;59.336;17.998;2023-02-10T00:33:53;52240.88;;;-145.37;47.79
13486;BME280;6815;59.336;17.998;2023-02-10T00:36:19;52232.88;;;-145.37;47.78
13486;BME280;6815;59.336;17.998;2023-02-10T00:38:46;52268.81;;;-145.37;48.22
13486;BME280;6815;59.336;17.998;2023-02-10T00:41:17;52300.75;;;-145.37;47.71
13486;BME280;6815;59.336;17.998;2023-02-10T00:43:43;52220.91;;;-145.37;47.62
13486;BME280;6815;59.336;17.998;2023-02-10T00:46:11;52272.81;;;-145.37;47.86
13486;BME280;6815;59.336;17.998;2023-02-10T00:48:37;52230.88;;;-145.37;47.35
13486;BME280;6815;59.336;17.998;2023-02-10T00:51:03;52260.84;;;-145.37;47.27
13486;BME280;6815;59.336;17.998;2023-02-10T00:53:29;52266.81;;;-145.37;47.06
13486;BME280;6815;59.336;17.998;2023-02-10T00:55:55;52290.78;;;-145.37;47.70
13486;BME280;6815;59.336;17.998;2023-02-10T00:58:20;52260.84;;;-145.37;47.30
13486;BME280;6815;59.336;17.998;2023-02-10T01:00:47;52270.81;;;-145.37;47.00
13486;BME280;6815;59.336;17.998;2023-02-10T01:03:12;52234.88;;;-145.37;46.68
13486;BME280;6815;59.336;17.998;2023-02-10T01:05:38;52260.84;;;-145.37;47.17
13486;BME280;6815;59.336;17.998;2023-02-10T01:08:04;52230.88;;;-145.37;46.96
13486;BME280;6815;59.336;17.998;2023-02-10T01:10:32;52274.81;;;-145.37;46.91
13486;BME280;6815;59.336;17.998;2023-02-10T01:13:00;52278.78;;;-145.37;47.00
13486;BME280;6815;59.336;17.998;2023-02-10T01:15:26;52262.81;;;-145.37;46.71
13486;BME280;6815;59.336;17.998;2023-02-10T01:17:54;52288.78;;;-145.37;46.38
13486;BME280;6815;59.336;17.998;2023-02-10T01:20:24;52220.91;;;-145.37;46.74
13486;BME280;6815;59.336;17.998;2023-02-10T01:22:51;52276.81;;;-145.37;46.77
13486;BME280;6815;59.336;17.998;2023-02-10T01:25:17;52270.81;;;-145.37;46.97
13486;BME280;6815;59.336;17.998;2023-02-10T01:27:44;52228.88;;;-145.37;46.79
13486;BME280;6815;59.336;17.998;2023-02-10T01:30:10;52248.84;;;-145.37;46.53
13486;BME280;6815;59.336;17.998;2023-02-10T01:32:36;52228.88;;;-145.37;46.71
13486;BME280;6815;59.336;17.998;2023-02-10T01:35:03;52216.91;;;-145.37;46.72
13486;BME280;6815;59.336;17.998;2023-02-10T01:37:29;52206.94;;;-145.37;46.12
13486;BME280;6815;59.336;17.998;2023-02-10T01:39:54;52262.81;;;-145.37;46.38
13486;BME280;6815;59.336;17.998;2023-02-10T01:42:20;52298.75;;;-145.37;46.48
13486;BME280;6815;59.336;17.998;2023-02-10T01:47:12;52236.88;;;-145.37;46.72
13486;BME280;6815;59.336;17.998;2023-02-10T01:49:41;52234.88;;;-145.37;46.29
13486;BME280;6815;59.336;17.998;2023-02-10T01:52:14;52190.97;;;-145.37;46.39
13486;BME280;6815;59.336;17.998;2023-02-10T01:54:50;52268.81;;;-145.37;46.26
13486;BME280;6815;59.336;17.998;2023-02-10T01:57:17;52256.84;;;-145.37;46.10
13486;BME280;6815;59.336;17.998;2023-02-10T01:59:43;52228.88;;;-145.37;46.12
13486;BME280;6815;59.336;17.998;2023-02-10T02:02:11;52232.88;;;-145.37;46.06
13486;BME280;6815;59.336;17.998;2023-02-10T02:04:42;52252.84;;;-145.37;45.83
13486;BME280;6815;59.336;17.998;2023-02-10T02:07:11;52198.94;;;-145.37;45.70
13486;BME280;6815;59.336;17.998;2023-02-10T02:09:37;52254.84;;;-145.37;45.60
13486;BME280;6815;59.336;17.998;2023-02-10T02:12:26;52238.88;;;-145.37;45.42
13486;BME280;6815;59.336;17.998;2023-02-10T02:15:27;52256.84;;;-145.37;45.71
13486;BME280;6815;59.336;17.998;2023-02-10T02:18:27;52254.84;;;-145.37;45.74
13486;BME280;6815;59.336;17.998;2023-02-10T02:21:07;52288.78;;;-145.37;45.41
13486;BME280;6815;59.336;17.998;2023-02-10T02:29:40;52216.91;;;-145.37;45.07
13486;BME280;6815;59.336;17.998;2023-02-10T02:32:21;52284.78;;;-145.37;44.93
13486;BME280;6815;59.336;17.998;2023-02-10T02:34:58;52234.88;;;-145.37;44.85
13486;BME280;6815;59.336;17.998;2023-02-10T02:37:37;52226.91;;;-145.37;44.85
13486;BME280;6815;59.336;17.998;2023-02-10T02:40:05;52224.91;;;-145.37;44.73
13486;BME280;6815;59.336;17.998;2023-02-10T02:42:32;52226.91;;;-145.37;44.79
13486;BME280;6815;59.336;17.998;2023-02-10T02:45:46;52264.81;;;-145.37;44.26
13486;BME280;6815;59.336;17.998;2023-02-10T02:53:53;52266.81;;;-145.37;43.95
13486;BME280;6815;59.336;17.998;2023-02-10T02:56:40;52242.88;;;-145.37;43.89
13486;BME280;6815;59.336;17.998;2023-02-10T03:02:00;52238.88;;;-145.37;44.05
13486;BME280;6815;59.336;17.998;2023-02-10T03:04:28;52220.91;;;-145.37;43.95
13486;BME280;6815;59.336;17.998;2023-02-10T03:06:55;52244.84;;;-145.37;43.68
13486;BME280;6815;59.336;17.998;2023-02-10T03:09:21;52286.78;;;-145.37;43.45
13486;BME280;6815;59.336;17.998;2023-02-10T03:11:48;52224.91;;;-145.37;43.22
13486;BME280;6815;59.336;17.998;2023-02-10T03:14:13;52184.97;;;-145.37;43.34
13486;BME280;6815;59.336;17.998;2023-02-10T03:16:55;52230.88;;;-145.37;43.42
13486;BME280;6815;59.336;17.998;2023-02-10T03:19:42;52228.88;;;-145.37;43.00
13486;BME280;6815;59.336;17.998;2023-02-10T03:22:08;52248.84;;;-145.37;43.04
13486;BME280;6815;59.336;17.998;2023-02-10T03:24:35;52266.81;;;-145.37;42.82
13486;BME280;6815;59.336;17.998;2023-02-10T03:27:01;52242.88;;;-145.37;42.83
13486;BME280;6815;59.336;17.998;2023-02-10T03:29:30;52220.91;;;-145.37;42.87
13486;BME280;6815;59.336;17.998;2023-02-10T03:31:56;52210.91;;;-145.37;42.71
13486;BME280;6815;59.336;17.998;2023-02-10T03:34:22;52206.94;;;-145.37;42.55
13486;BME280;6815;59.336;17.998;2023-02-10T03:36:47;52252.84;;;-145.37;42.50
13486;BME280;6815;59.336;17.998;2023-02-10T03:39:32;52246.84;;;-145.37;42.76
13486;BME280;6815;59.336;17.998;2023-02-10T03:41:58;52228.88;;;-145.37;42.57
13486;BME280;6815;59.336;17.998;2023-02-10T03:44:24;52270.81;;;-145.37;42.14
13486;BME280;6815;59.336;17.998;2023-02-10T03:46:49;52226.91;;;-145.37;42.01
13486;BME280;6815;59.336;17.998;2023-02-10T03:49:15;52232.88;;;-145.37;42.04
13486;BME280;6815;59.336;17.998;2023-02-10T03:51:40;52218.91;;;-145.37;41.70
13486;BME280;6815;59.336;17.998;2023-02-10T03:54:07;52180.97;;;-145.37;41.62
13486;BME280;6815;59.336;17.998;2023-02-10T03:56:33;52188.97;;;-145.37;41.67
13486;BME280;6815;59.336;17.998;2023-02-10T03:59:02;52230.88;;;-145.37;41.64
13486;BME280;6815;59.336;17.998;2023-02-10T04:01:28;52216.91;;;-145.37;41.94
13486;BME280;6815;59.336;17.998;2023-02-10T04:03:54;52222.91;;;-145.37;41.61
13486;BME280;6815;59.336;17.998;2023-02-10T04:06:19;52232.88;;;-145.37;41.64
13486;BME280;6815;59.336;17.998;2023-02-10T04:08:47;52222.91;;;-145.37;41.45
13486;BME280;6815;59.336;17.998;2023-02-10T04:11:12;52230.88;;;-145.37;41.58
13486;BME280;6815;59.336;17.998;2023-02-10T04:13:39;52194.94;;;-145.37;41.21
13486;BME280;6815;59.336;17.998;2023-02-10T04:16:14;52242.88;;;-145.37;41.23
13486;BME280;6815;59.336;17.998;2023-02-10T04:18:40;52248.84;;;-145.37;41.13
13486;BME280;6815;59.336;17.998;2023-02-10T04:21:07;52234.88;;;-145.37;41.21
13486;BME280;6815;59.336;17.998;2023-02-10T04:23:33;52214.91;;;-145.37;41.50
13486;BME280;6815;59.336;17.998;2023-02-10T04:25:59;52202.94;;;-145.37;41.35
13486;BME280;6815;59.336;17.998;2023-02-10T04:28:25;52238.88;;;-145.37;41.40
13486;BME280;6815;59.336;17.998;2023-02-10T04:30:57;52200.94;;;-145.37;41.28
13486;BME280;6815;59.336;17.998;2023-02-10T04:33:42;52220.91;;;-145.37;41.38
13486;BME280;6815;59.336;17.998;2023-02-10T04:36:08;52272.81;;;-145.37;41.37
13486;BME280;6815;59.336;17.998;2023-02-10T04:38:34;52220.91;;;-145.37;41.62
13486;BME280;6815;59.336;17.998;2023-02-10T04:41:00;52262.81;;;-145.37;41.72
13486;BME280;6815;59.336;17.998;2023-02-10T04:43:30;52216.91;;;-145.37;41.58
13486;BME280;6815;59.336;17.998;2023-02-10T04:45:55;52238.88;;;-145.37;41.49
13486;BME280;6815;59.336;17.998;2023-02-10T04:48:21;52222.91;;;-145.37;41.64
13486;BME280;6815;59.336;17.998;2023-02-10T04:50:48;52224.91;;;-145.37;41.90
13486;BME280;6815;59.336;17.998;2023-02-10T04:53:13;52252.84;;;-145.37;42.03
13486;BME280;6815;59.336;17.998;2023-02-10T04:55:39;52228.88;;;-145.37;41.93
13486;BME280;6815;59.336;17.998;2023-02-10T04:58:06;52240.88;;;-145.37;42.30
13486;BME280;6815;59.336;17.998;2023-02-10T05:00:33;52194.94;;;-145.37;42.40
13486;BME280;6815;59.336;17.998;2023-02-10T05:03:02;52250.84;;;-145.37;42.55
13486;BME280;6815;59.336;17.998;2023-02-10T05:05:27;52238.88;;;-145.37;42.18
13486;BME280;6815;59.336;17.998;2023-02-10T05:07:53;52220.91;;;-145.37;41.89
13486;BME280;6815;59.336;17.998;2023-02-10T05:10:18;52242.88;;;-145.37;42.06
13486;BME280;6815;59.336;17.998;2023-02-10T05:12:44;52222.91;;;-145.37;42.03
13486;BME280;6815;59.336;17.998;2023-02-10T05:15:09;52232.88;;;-145.37;41.79
13486;BME280;6815;59.336;17.998;2023-02-10T05:17:39;52218.91;;;-145.37;42.07
13486;BME280;6815;59.336;17.998;2023-02-10T05:20:05;52252.84;;;-145.37;41.71
13486;BME280;6815;59.336;17.998;2023-02-10T05:22:35;52232.88;;;-145.37;41.97
13486;BME280;6815;59.336;17.998;2023-02-10T05:25:06;52200.94;;;-145.37;41.72
13486;BME280;6815;59.336;17.998;2023-02-10T05:27:47;52204.94;;;-145.37;41.77
13486;BME280;6815;59.336;17.998;2023-02-10T05:30:14;52192.97;;;-145.37;41.96
13486;BME280;6815;59.336;17.998;2023-02-10T05:32:41;52220.91;;;-145.37;41.90
13486;BME280;6815;59.336;17.998;2023-02-10T05:35:10;52258.84;;;-145.37;41.62
13486;BME280;6815;59.336;17.998;2023-02-10T05:37:35;52204.94;;;-145.37;42.17
13486;BME280;6815;59.336;17.998;2023-02-10T05:40:21;52254.84;;;-145.37;41.87
13486;BME280;6815;59.336;17.998;2023-02-10T05:42:47;52244.84;;;-145.37;41.85
13486;BME280;6815;59.336;17.998;2023-02-10T05:45:12;52220.91;;;-145.37;42.43
13486;BME280;6815;59.336;17.998;2023-02-10T05:47:58;52222.91;;;-145.37;42.46
13486;BME280;6815;59.336;17.998;2023-02-10T05:50:24;52228.88;;;-145.37;42.28
13486;BME280;6815;59.336;17.998;2023-02-10T05:52:49;52226.91;;;-145.37;42.50
13486;BME280;6815;59.336;17.998;2023-02-10T05:55:15;52210.91;;;-145.37;42.25
13486;BME280;6815;59.336;17.998;2023-02-10T05:57:43;52216.91;;;-145.37;42.25
13486;BME280;6815;59.336;17.998;2023-02-10T06:00:09;52252.84;;;-145.37;42.51
13486;BME280;6815;59.336;17.998;2023-02-10T06:02:35;52200.94;;;-145.37;42.47
13486;BME280;6815;59.336;17.998;2023-02-10T06:05:08;52214.91;;;-145.37;42.45
13486;BME280;6815;59.336;17.998;2023-02-10T06:07:34;52182.97;;;-145.37;42.31
13486;BME280;6815;59.336;17.998;2023-02-10T06:09:59;52210.91;;;-145.37;42.83
13486;BME280;6815;59.336;17.998;2023-02-10T06:12:27;52244.84;;;-145.37;42.99
13486;BME280;6815;59.336;17.998;2023-02-10T06:15:01;52194.94;;;-145.37;42.64
13486;BME280;6815;59.336;17.998;2023-02-10T06:17:26;52238.88;;;-145.37;42.73
13486;BME280;6815;59.336;17.998;2023-02-10T06:19:53;52220.91;;;-145.37;42.62
13486;BME280;6815;59.336;17.998;2023-02-10T06:22:18;52250.84;;;-145.37;42.66
13486;BME280;6815;59.336;17.998;2023-02-10T06:33:17;52216.91;;;-145.37;43.51
13486;BME280;6815;59.336;17.998;2023-02-10T06:36:03;52234.88;;;-145.37;43.65
13486;BME280;6815;59.336;17.998;2023-02-10T06:38:37;52192.97;;;-145.37;43.84
13486;BME280;6815;59.336;17.998;2023-02-10T06:41:13;52234.88;;;-145.37;43.37
13486;BME280;6815;59.336;17.998;2023-02-10T06:43:39;52220.91;;;-145.37;43.42
13486;BME280;6815;59.336;17.998;2023-02-10T06:46:05;52240.88;;;-145.37;43.49
13486;BME280;6815;59.336;17.998;2023-02-10T06:48:32;52222.91;;;-145.37;43.63
13486;BME280;6815;59.336;17.998;2023-02-10T06:50:59;52210.91;;;-145.37;43.36
13486;BME280;6815;59.336;17.998;2023-02-10T06:53:26;52192.97;;;-145.37;43.51
13486;BME280;6815;59.336;17.998;2023-02-10T06:55:55;52214.91;;;-145.37;43.78
13486;BME280;6815;59.336;17.998;2023-02-10T06:58:23;52208.94;;;-145.37;43.89
13486;BME280;6815;59.336;17.998;2023-02-10T07:00:49;52218.91;;;-145.37;44.03
13486;BME280;6815;59.336;17.998;2023-02-10T07:03:16;52212.91;;;-145.37;44.56
13486;BME280;6815;59.336;17.998;2023-02-10T07:05:42;52230.88;;;-145.37;44.09
13486;BME280;6815;59.336;17.998;2023-02-10T07:08:08;52212.91;;;-145.37;43.65
13486;BME280;6815;59.336;17.998;2023-02-10T07:10:35;52224.91;;;-145.37;43.59
13486;BME280;6815;59.336;17.998;2023-02-10T07:13:22;52196.94;;;-145.37;44.08
13486;BME280;6815;59.336;17.998;2023-02-10T07:15:48;52230.88;;;-145.37;44.68
13486;BME280;6815;59.336;17.998;2023-02-10T07:18:20;52218.91;;;-145.37;44.59
13486;BME280;6815;59.336;17.998;2023-02-10T07:20:55;52196.94;;;-145.37;44.47
13486;BME280;6815;59.336;17.998;2023-02-10T07:23:26;52182.97;;;-145.37;44.39
13486;BME280;6815;59.336;17.998;2023-02-10T07:26:09;52232.88;;;-145.37;44.88
13486;BME280;6815;59.336;17.998;2023-02-10T07:29:01;52218.91;;;-145.37;44.82
13486;BME280;6815;59.336;17.998;2023-02-10T07:31:27;52240.88;;;-145.37;44.90
13486;BME280;6815;59.336;17.998;2023-02-10T07:33:53;52226.91;;;-145.37;45.04
13486;BME280;6815;59.336;17.998;2023-02-10T07:36:18;52256.84;;;-145.37;45.14
13486;BME280;6815;59.336;17.998;2023-02-10T07:38:44;52188.97;;;-145.37;45.52
13486;BME280;6815;59.336;17.998;2023-02-10T07:41:09;52204.94;;;-145.37;45.82
13486;BME280;6815;59.336;17.998;2023-02-10T07:43:35;52224.91;;;-145.37;46.06
13486;BME280;6815;59.336;17.998;2023-02-10T07:46:00;52200.94;;;-145.37;45.64
13486;BME280;6815;59.336;17.998;2023-02-10T07:48:26;52186.97;;;-145.37;46.12
13486;BME280;6815;59.336;17.998;2023-02-10T07:50:52;52204.94;;;-145.37;46.24
13486;BME280;6815;59.336;17.998;2023-02-10T07:53:19;52244.84;;;-145.37;46.26
13486;BME280;6815;59.336;17.998;2023-02-10T07:55:45;52204.94;;;-145.37;46.36
13486;BME280;6815;59.336;17.998;2023-02-10T07:58:10;52212.91;;;-145.37;46.61
13486;BME280;6815;59.336;17.998;2023-02-10T08:00:36;52220.91;;;-145.37;46.52
13486;BME280;6815;59.336;17.998;2023-02-10T08:03:01;52186.97;;;-145.37;46.15
13486;BME280;6815;59.336;17.998;2023-02-10T08:05:27;52250.84;;;-145.37;46.45
13486;BME280;6815;59.336;17.998;2023-02-10T08:07:54;52234.88;;;-145.37;46.44
13486;BME280;6815;59.336;17.998;2023-02-10T08:10:20;52210.91;;;-145.37;46.63
13486;BME280;6815;59.336;17.998;2023-02-10T08:12:45;52202.94;;;-145.37;46.34
13486;BME280;6815;59.336;17.998;2023-02-10T08:15:14;52230.88;;;-145.37;46.24
13486;BME280;6815;59.336;17.998;2023-02-10T08:17:43;52194.94;;;-145.37;46.37
13486;BME280;6815;59.336;17.998;2023-02-10T08:20:09;52238.88;;;-145.37;46.55
13486;BME280;6815;59.336;17.998;2023-02-10T08:22:35;52240.88;;;-145.37;45.99
13486;BME280;6815;59.336;17.998;2023-02-10T08:25:01;52244.84;;;-145.37;46.19
13486;BME280;6815;59.336;17.998;2023-02-10T08:27:26;52202.94;;;-145.37;46.05
13486;BME280;6815;59.336;17.998;2023-02-10T08:29:54;52204.94;;;-145.37;46.13
13486;BME280;6815;59.336;17.998;2023-02-10T08:32:19;52266.81;;;-145.37;46.26
13486;BME280;6815;59.336;17.998;2023-02-10T08:34:46;52250.84;;;-145.37;45.99
13486;BME280;6815;59.336;17.998;2023-02-10T08:37:12;52206.94;;;-145.37;46.29
13486;BME280;6815;59.336;17.998;2023-02-10T08:39:37;52192.97;;;-145.37;46.04
13486;BME280;6815;59.336;17.998;2023-02-10T08:42:03;52240.88;;;-145.37;46.12
13486;BME280;6815;59.336;17.998;2023-02-10T08:44:29;52246.84;;;-145.37;46.14
13486;BME280;6815;59.336;17.998;2023-02-10T08:46:54;52210.91;;;-145.37;46.21
13486;BME280;6815;59.336;17.998;2023-02-10T08:49:20;52242.88;;;-145.37;46.16
13486;BME280;6815;59.336;17.998;2023-02-10T08:51:50;52248.84;;;-145.37;46.04
13486;BME280;6815;59.336;17.998;2023-02-10T08:54:15;52238.88;;;-145.37;45.95
13486;BME280;6815;59.336;17.998;2023-02-10T08:56:41;52212.91;;;-145.37;46.11
13486;BME280;6815;59.336;17.998;2023-02-10T08:59:06;52212.91;;;-145.37;46.05
13486;BME280;6815;59.336;17.998;2023-02-10T09:01:32;52224.91;;;-145.37;45.95
13486;BME280;6815;59.336;17.998;2023-02-10T09:03:57;52220.91;;;-145.37;46.01
13486;BME280;6815;59.336;17.998;2023-02-10T09:06:29;52234.88;;;-145.37;46.16
13486;BME280;6815;59.336;17.998;2023-02-10T09:08:56;52242.88;;;-145.37;45.59
13486;BME280;6815;59.336;17.998;2023-02-10T09:11:22;52230.88;;;-145.37;45.71
13486;BME280;6815;59.336;17.998;2023-02-10T09:13:52;52188.97;;;-145.37;45.54
13486;BME280;6815;59.336;17.998;2023-02-10T09:16:18;52204.94;;;-145.37;45.31
13486;BME280;6815;59.336;17.998;2023-02-10T09:18:44;52232.88;;;-145.37;45.68
13486;BME280;6815;59.336;17.998;2023-02-10T09:21:11;52222.91;;;-145.37;45.54
13486;BME280;6815;59.336;17.998;2023-02-10T09:23:37;52240.88;;;-145.37;45.17
13486;BME280;6815;59.336;17.998;2023-02-10T09:26:03;52218.91;;;-145.37;45.08
13486;BME280;6815;59.336;17.998;2023-02-10T09:28:28;52212.91;;;-145.37;45.05
13486;BME280;6815;59.336;17.998;2023-02-10T09:30:54;52232.88;;;-145.37;44.82
13486;BME280;6815;59.336;17.998;2023-02-10T09:33:19;52210.91;;;-145.37;44.95
13486;BME280;6815;59.336;17.998;2023-02-10T09:35:45;52234.88;;;-145.37;45.10
13486;BME280;6815;59.336;17.998;2023-02-10T09:38:12;52177.00;;;-145.37;44.74
13486;BME280;6815;59.336;17.998;2023-02-10T09:40:48;52228.88;;;-145.37;44.63
13486;BME280;6815;59.336;17.998;2023-02-10T09:46:26;52190.97;;;-145.37;44.48
13486;BME280;6815;59.336;17.998;2023-02-10T09:49:11;52272.81;;;-145.37;44.01
13486;BME280;6815;59.336;17.998;2023-02-10T09:54:27;52228.88;;;-145.37;44.25
13486;BME280;6815;59.336;17.998;2023-02-10T09:57:19;52204.94;;;-145.37;44.20
13486;BME280;6815;59.336;17.998;2023-02-10T09:59:44;52230.88;;;-145.37;43.76
13486;BME280;6815;59.336;17.998;2023-02-10T10:02:34;52244.84;;;-145.37;43.84
13486;BME280;6815;59.336;17.998;2023-02-10T10:05:14;52220.91;;;-145.37;43.58
13486;BME280;6815;59.336;17.998;2023-02-10T10:07:44;52204.94;;;-145.37;43.31
13486;BME280;6815;59.336;17.998;2023-02-10T10:10:32;52238.88;;;-145.37;43.86
13486;BME280;6815;59.336;17.998;2023-02-10T10:13:01;52190.97;;;-145.37;43.91
13486;BME280;6815;59.336;17.998;2023-02-10T10:15:31;52212.91;;;-145.37;43.52
13486;BME280;6815;59.336;17.998;2023-02-10T10:18:10;52226.91;;;-145.37;44.04
13486;BME280;6815;59.336;17.998;2023-02-10T10:32:26;52248.84;;;-145.37;42.30
13486;BME280;6815;59.336;17.998;2023-02-10T10:34:58;52226.91;;;-145.37;42.74
13486;BME280;6815;59.336;17.998;2023-02-10T10:37:27;52230.88;;;-145.37;42.49
13486;BME280;6815;59.336;17.998;2023-02-10T10:40:02;52272.81;;;-145.37;42.82
13486;BME280;6815;59.336;17.998;2023-02-10T10:42:46;52228.88;;;-145.37;42.33
13486;BME280;6815;59.336;17.998;2023-02-10T10:45:17;52222.91;;;-145.37;42.52
13486;BME280;6815;59.336;17.998;2023-02-10T10:47:47;52232.88;;;-145.37;42.72
13486;BME280;6815;59.336;17.998;2023-02-10T10:50:18;52200.94;;;-145.37;42.62
13486;BME280;6815;59.336;17.998;2023-02-10T10:52:49;52256.84;;;-145.37;42.33
13486;BME280;6815;59.336;17.998;2023-02-10T10:55:39;52252.84;;;-145.37;42.76
13486;BME280;6815;59.336;17.998;2023-02-10T10:58:26;52238.88;;;-145.37;42.82
13486;BME280;6815;59.336;17.998;2023-02-10T11:00:57;52262.81;;;-145.37;42.55
13486;BME280;6815;59.336;17.998;2023-02-10T11:03:23;52222.91;;;-145.37;42.69
13486;BME280;6815;59.336;17.998;2023-02-10T11:06:17;52228.88;;;-145.37;42.44
13486;BME280;6815;59.336;17.998;2023-02-10T11:08:58;52210.91;;;-145.37;42.57
13486;BME280;6815;59.336;17.998;2023-02-10T11:11:40;52258.84;;;-145.37;42.34
13486;BME280;6815;59.336;17.998;2023-02-10T11:14:24;52224.91;;;-145.37;42.04
13486;BME280;6815;59.336;17.998;2023-02-10T11:16:57;52208.94;;;-145.37;41.82
13486;BME280;6815;59.336;17.998;2023-02-10T11:19:29;52192.97;;;-145.37;42.16
13486;BME280;6815;59.336;17.998;2023-02-10T11:21:55;52228.88;;;-145.37;42.06
13486;BME280;6815;59.336;17.998;2023-02-10T11:24:47;52238.88;;;-145.37;41.69
13486;BME280;6815;59.336;17.998;2023-02-10T11:27:14;52240.88;;;-145.37;42.10
13486;BME280;6815;59.336;17.998;2023-02-10T11:29:54;52230.88;;;-145.37;41.41
13486;BME280;6815;59.336;17.998;2023-02-10T11:34:59;52220.91;;;-145.37;41.45
13486;BME280;6815;59.336;17.998;2023-02-10T11:37:37;52202.94;;;-145.37;41.67
13486;BME280;6815;59.336;17.998;2023-02-10T11:40:25;52206.94;;;-145.37;41.68
13486;BME280;6815;59.336;17.998;2023-02-10T11:42:55;52244.84;;;-145.37;41.35
13486;BME280;6815;59.336;17.998;2023-02-10T11:45:27;52224.91;;;-145.37;40.90
13486;BME280;6815;59.336;17.998;2023-02-10T11:48:01;52236.88;;;-145.37;41.13
13486;BME280;6815;59.336;17.998;2023-02-10T11:50:33;52246.84;;;-145.37;40.97
13486;BME280;6815;59.336;17.998;2023-02-10T11:53:00;52204.94;;;-145.37;40.58
13486;BME280;6815;59.336;17.998;2023-02-10T11:55:41;52220.91;;;-145.37;40.55
13486;BME280;6815;59.336;17.998;2023-02-10T12:09:46;52262.81;;;-145.37;40.22
13486;BME280;6815;59.336;17.998;2023-02-10T12:12:30;52210.91;;;-145.37;39.65
13486;BME280;6815;59.336;17.998;2023-02-10T12:20:33;52244.84;;;-145.37;39.85
13486;BME280;6815;59.336;17.998;2023-02-10T12:25:52;52252.84;;;-145.37;40.52
13486;BME280;6815;59.336;17.998;2023-02-10T12:28:43;52252.84;;;-145.37;40.38
13486;BME280;6815;59.336;17.998;2023-02-10T12:39:11;52224.91;;;-145.37;39.49
13486;BME280;6815;59.336;17.998;2023-02-10T12:44:43;52232.88;;;-145.37;39.77
13486;BME280;6815;59.336;17.998;2023-02-10T12:47:32;52228.88;;;-145.37;39.61
13486;BME280;6815;59.336;17.998;2023-02-10T12:52:39;52222.91;;;-145.37;39.42
13486;BME280;6815;59.336;17.998;2023-02-10T12:55:18;52190.97;;;-145.37;38.94
13486;BME280;6815;59.336;17.998;2023-02-10T12:57:52;52196.94;;;-145.37;38.39
13486;BME280;6815;59.336;17.998;2023-02-10T13:00:30;52214.91;;;-145.37;38.46
13486;BME280;6815;59.336;17.998;2023-02-10T13:03:31;52238.88;;;-145.37;38.58
13486;BME280;6815;59.336;17.998;2023-02-10T13:06:25;52218.91;;;-145.37;37.75
13486;BME280;6815;59.336;17.998;2023-02-10T13:08:58;52210.91;;;-145.37;37.53
13486;BME280;6815;59.336;17.998;2023-02-10T13:11:36;52180.97;;;-145.37;37.57
13486;BME280;6815;59.336;17.998;2023-02-10T13:14:13;52220.91;;;-145.37;37.76
13486;BME280;6815;59.336;17.998;2023-02-10T13:16:52;52246.84;;;-145.37;38.08
13486;BME280;6815;59.336;17.998;2023-02-10T13:22:44;52242.88;;;-145.37;37.83
13486;BME280;6815;59.336;17.998;2023-02-10T13:25:18;52274.81;;;-145.37;37.61
13486;BME280;6815;59.336;17.998;2023-02-10T13:35:59;52230.88;;;-145.37;36.94
13486;BME280;6815;59.336;17.998;2023-02-10T13:38:28;52252.84;;;-145.37;37.25
13486;BME280;6815;59.336;17.998;2023-02-10T13:40:58;52224.91;;;-145.37;37.41
13486;BME280;6815;59.336;17.998;2023-02-10T13:43:55;52214.91;;;-145.37;37.40
13486;BME280;6815;59.336;17.998;2023-02-10T13:46:27;52242.88;;;-145.37;37.72
13486;BME280;6815;59.336;17.998;2023-02-10T13:48:55;52188.97;;;-145.37;38.10
13486;BME280;6815;59.336;17.998;2023-02-10T13:51:36;52214.91;;;-145.37;38.03
13486;BME280;6815;59.336;17.998;2023-02-10T13:54:03;52218.91;;;-145.37;38.27
13486;BME280;6815;59.336;17.998;2023-02-10T13:56:31;52200.94;;;-145.37;38.62
13486;BME280;6815;59.336;17.998;2023-02-10T14:06:47;52256.84;;;-145.37;38.92
13486;BME280;6815;59.336;17.998;2023-02-10T14:09:20;52226.91;;;-145.37;39.02
13486;BME280;6815;59.336;17.998;2023-02-10T14:11:48;52226.91;;;-145.37;38.93
13486;BME280;6815;59.336;17.998;2023-02-10T14:14:33;52214.91;;;-145.37;38.78
13486;BME280;6815;59.336;17.998;2023-02-10T14:19:40;52216.91;;;-145.37;39.29
13486;BME280;6815;59.336;17.998;2023-02-10T14:22:53;52218.91;;;-145.37;39.29
13486;BME280;6815;59.336;17.998;2023-02-10T14:24:55;52256.84;;;-145.37;39.52
13486;BME280;6815;59.336;17.998;2023-02-10T14:27:25;52188.97;;;-145.37;39.44
13486;BME280;6815;59.336;17.998;2023-02-10T14:30:19;52226.91;;;-145.37;39.37
13486;BME280;6815;59.336;17.998;2023-02-10T14:32:46;52202.94;;;-145.37;39.39
13486;BME280;6815;59.336;17.998;2023-02-10T14:35:18;52208.94;;;-145.37;39.18
13486;BME280;6815;59.336;17.998;2023-02-10T14:37:55;52220.91;;;-145.37;39.56
13486;BME280;6815;59.336;17.998;2023-02-10T14:40:23;52238.88;;;-145.37;39.50